Marina, Croatia
Current Conditions -  °F | °C
As of 11:30 AM on Friday 21 Nov 2014 (Local Time) from LDSP Reporting Station
Clear Clear  
Wind Chill: 57°   Ceiling: Unl
Heat Index: 57°   Visibility: 6mi
Dew Point: 39°   Wind: 2mph
Humidity: 51%   Direction: NA
Pressure: 30.24"   Gusts: NA
Location:  43.51°N, 16.1°E
Report Text: LDSP 211030Z VRB02KT CAVOK 14/04 Q1024 NOSIG
Loading
Personal Weather Stations






























Interactive Weather Map New forecast layout! Learn more

10-Day Weather Forecast

Advertisements
Track Severe Weather on mobile